»·PEaware :: AAL791 KLAS-KPHX

AAL791 :: KLAS-KPHX

FLIGHT INFORMATION

Flight Status: Arrived
Operator:
American Airlines
More flights by this operator :: More flights under this callsign
Pilot: Anonymous 7386 (7386)
Aircraft: AIRBUS A320
(A320)
More flights by this aircraft type
Origin: KLAS McCarran Intl
United States
Destination: KPHX Phoenix Sky Harbor Intl
United States
More flights between these airports :: More routes between these airports
Route: +COWBY8 COWBY TENTS BRUSR1
File this flight plan on PilotEdge
Remarks:
Altitude:
(Current/Filed)
33,000ft
Speed:
(Current/Filed)
460kts
Departed: 28-Sep-20 06:15 PM
Arrived: 28-Sep-20 07:08 PM
Distance/Time
Traveled:
222nm/0:53
Distance/Time
To Go:
Arrived

Flight Plot

Page will automatically refresh every two minutes.

Flight plan parsing failed; only flown route is shown


Map Options




Map Legend


Flown Route
Filed Route
Departure Airport
Arrival Airport
Navaid (VOR, NDB)
Fix

Horizontal Profiles

Position Reports

Time Latitude Longitude Heading Altitude Ground
Speed
28-Sep-20 17:44 36.081049 -115.135317 225 2120ft 0kts
28-Sep-20 17:45 36.081049 -115.135317 225 2120ft 0kts
28-Sep-20 17:46 36.081049 -115.135317 225 2120ft 0kts
28-Sep-20 17:47 36.081049 -115.135317 225 2120ft 0kts
28-Sep-20 17:48 36.081049 -115.135317 225 2120ft 0kts
28-Sep-20 17:49 36.081049 -115.135317 225 2120ft 0kts
28-Sep-20 17:50 36.081049 -115.135317 225 2120ft 0kts
28-Sep-20 17:51 36.081049 -115.135317 225 2120ft 0kts
28-Sep-20 17:52 36.081049 -115.135317 225 2120ft 0kts
28-Sep-20 17:53 36.081049 -115.135317 225 2120ft 0kts
28-Sep-20 17:54 36.081049 -115.135317 225 2120ft 0kts
28-Sep-20 17:55 36.081049 -115.135317 225 2120ft 0kts
28-Sep-20 17:56 36.081049 -115.135317 225 2120ft 0kts
28-Sep-20 17:57 36.081049 -115.135317 225 2120ft 0kts
28-Sep-20 17:58 36.081049 -115.135317 225 2120ft 0kts
28-Sep-20 17:59 36.081049 -115.135317 225 2120ft 0kts
28-Sep-20 18:00 36.081049 -115.135317 225 2120ft 0kts
28-Sep-20 18:01 36.081228 -115.135087 225 2120ft 2kts
28-Sep-20 18:02 36.081635 -115.134565 226 2120ft 0kts
28-Sep-20 18:03 36.081647 -115.134549 226 2120ft 0kts
28-Sep-20 18:04 36.081647 -115.134549 226 2120ft 0kts
28-Sep-20 18:05 36.081646 -115.134550 225 2120ft 0kts
28-Sep-20 18:06 36.081343 -115.133849 142 2120ft 6kts
28-Sep-20 18:07 36.080627 -115.133749 182 2120ft 0kts
28-Sep-20 18:08 36.078677 -115.133180 142 2120ft 9kts
28-Sep-20 18:09 36.078257 -115.130390 89 2120ft 8kts
28-Sep-20 18:10 36.078286 -115.126180 90 2120ft 13kts
28-Sep-20 18:11 36.077930 -115.122067 134 2120ft 9kts
28-Sep-20 18:12 36.077482 -115.121497 136 2120ft 0kts
28-Sep-20 18:13 36.076505 -115.121393 218 2120ft 8kts
28-Sep-20 18:14 36.076342 -115.148382 270 2367ft 179kts
28-Sep-20 18:15 36.076616 -115.215658 271 4774ft 222kts
28-Sep-20 18:16 36.033854 -115.274406 199 6847ft 282kts
28-Sep-20 18:17 35.957812 -115.297976 164 9869ft 291kts
28-Sep-20 18:18 35.875539 -115.257981 137 11250ft 354kts
28-Sep-20 18:19 35.837428 -115.142368 106 13205ft 377kts
28-Sep-20 18:20 35.826683 -115.014130 83 15401ft 387kts
28-Sep-20 18:21 35.839027 -114.880877 83 17433ft 396kts
28-Sep-20 18:22 35.851302 -114.744661 83 19353ft 404kts
28-Sep-20 18:23 35.863627 -114.605891 83 21101ft 411kts
28-Sep-20 18:24 35.875975 -114.464983 83 22734ft 417kts
28-Sep-20 18:25 35.888359 -114.321705 84 24206ft 423kts
28-Sep-20 18:26 35.900774 -114.175955 84 25504ft 430kts
28-Sep-20 18:27 35.913165 -114.028385 84 26633ft 438kts
28-Sep-20 18:28 35.914964 -113.877466 103 27564ft 447kts
28-Sep-20 18:29 35.873807 -113.731696 109 28501ft 453kts
28-Sep-20 18:30 35.831094 -113.585437 109 29206ft 452kts
28-Sep-20 18:31 35.788351 -113.439919 109 29207ft 453kts
28-Sep-20 18:32 35.745186 -113.293766 109 29208ft 454kts
28-Sep-20 18:33 35.701804 -113.147626 109 29209ft 455kts
28-Sep-20 18:34 35.658186 -113.001441 109 29219ft 455kts
28-Sep-20 18:35 35.614490 -112.855755 109 29322ft 454kts
28-Sep-20 18:36 35.570593 -112.710141 109 29354ft 453kts
28-Sep-20 18:37 35.526262 -112.565814 113 29339ft 453kts
28-Sep-20 18:38 35.440281 -112.454322 150 29350ft 464kts
28-Sep-20 18:39 35.314400 -112.417049 169 29356ft 468kts
28-Sep-20 18:40 35.186253 -112.391873 168 29332ft 467kts
28-Sep-20 18:41 35.062406 -112.364829 167 28966ft 432kts
28-Sep-20 18:42 34.944855 -112.339331 168 28642ft 427kts
28-Sep-20 18:43 34.828463 -112.314091 168 27729ft 420kts
28-Sep-20 18:44 34.714737 -112.289018 167 25671ft 412kts
28-Sep-20 18:45 34.603608 -112.264626 167 23698ft 402kts
28-Sep-20 18:46 34.495214 -112.240899 167 21744ft 392kts
28-Sep-20 18:47 34.391599 -112.215986 166 20105ft 371kts
28-Sep-20 18:48 34.292256 -112.190263 166 18301ft 363kts
28-Sep-20 18:49 34.194762 -112.165068 166 16471ft 357kts
28-Sep-20 18:50 34.100020 -112.140645 166 15059ft 329kts
28-Sep-20 18:51 34.014977 -112.108034 159 13687ft 316kts
28-Sep-20 18:52 33.932661 -112.074594 159 12234ft 309kts
28-Sep-20 18:53 33.852278 -112.041976 160 10828ft 301kts
28-Sep-20 18:54 33.774211 -112.010320 161 9476ft 292kts
28-Sep-20 18:55 33.698192 -111.979582 161 8804ft 284kts
28-Sep-20 18:56 33.628852 -111.951553 161 8349ft 253kts
28-Sep-20 18:57 33.567664 -111.920121 126 7080ft 240kts
28-Sep-20 18:58 33.561348 -111.840759 90 6048ft 243kts
28-Sep-20 18:59 33.562141 -111.760522 90 5061ft 238kts
28-Sep-20 19:00 33.525359 -111.710423 179 5005ft 231kts
28-Sep-20 19:01 33.463136 -111.720706 226 5003ft 232kts
28-Sep-20 19:02 33.440615 -111.791235 268 4169ft 224kts
28-Sep-20 19:03 33.440764 -111.859286 268 3278ft 191kts
28-Sep-20 19:04 33.440800 -111.916242 268 2364ft 147kts
28-Sep-20 19:05 33.440817 -111.964936 269 1602ft 145kts
28-Sep-20 19:06 33.440855 -112.010030 270 1118ft 85kts
28-Sep-20 19:07 33.439855 -112.016762 129 1118ft 0kts
28-Sep-20 19:08 33.439653 -112.014559 123 1118ft 9kts
28-Sep-20 19:09 33.439030 -112.011502 89 1118ft 12kts
28-Sep-20 19:10 33.439004 -112.006879 90 1118ft 14kts
28-Sep-20 19:11 33.439047 -112.002021 91 1118ft 10kts
28-Sep-20 19:13 33.438348 -112.001610 201 1118ft 0kts

Navigation Log

Ident Type
Flight plan parsing failed, navigation log unavailable